Time;durP1;ratioP1;P1;durP2;ratioP2;P2;SDS_P1;SDS_P2;PMS_P1;PMS_P2;Temp;Humidity;BMP_temperature;BMP_pressure;BME280_temperature;BME280_humidity;BME280_pressure;Samples;Min_cycle;Max_cycle;Signal;HPM_P1;HPM_P2
2022/06/10 01:51:12;;;;;;;2.58;1.60;;;;;;;12.95;70.10;97260.47;1559322;23;20302;-81
2022/06/10 01:56:49;;;;;;;3.95;1.83;;;;;;;13.01;69.90;97267.63;4884364;29;20029;-79
2022/06/10 01:59:27;;;;;;;3.67;1.55;;;;;;;13.06;71.28;97264.47;4884711;29;20033;-82
2022/06/10 02:02:07;;;;;;;3.30;1.60;;;;;;;13.08;69.66;97272.94;4884875;29;20078;-81
2022/06/10 02:04:46;;;;;;;4.88;1.90;;;;;;;13.06;69.40;97280.97;4891222;23;20045;-78
2022/06/10 02:07:18;;;;;;;;;;;;;;;13.10;70.12;97286.69;4874059;29;20121;-80
2022/06/10 02:09:48;;;;;;;3.08;1.90;;;;;;;13.11;69.02;97272.56;4874893;29;19963;-78
2022/06/10 02:12:21;;;;;;;4.45;1.98;;;;;;;13.04;69.08;97276.91;4874022;29;20053;-78
2022/06/10 02:14:54;;;;;;;2.47;1.75;;;;;;;12.98;69.09;97268.78;4873708;29;20508;-79
2022/06/10 02:17:26;;;;;;;2.95;1.88;;;;;;;12.96;69.82;97272.56;4873047;29;20064;-78
2022/06/10 02:19:57;;;;;;;2.65;1.40;;;;;;;12.96;69.31;97275.19;4873332;29;20049;-76
2022/06/10 02:22:34;;;;;;;2.10;1.63;;;;;;;12.94;69.75;97277.19;4874573;29;20103;-79
2022/06/10 02:25:07;;;;;;;2.15;1.50;;;;;;;12.91;69.43;97285.41;4875256;29;20132;-76
2022/06/10 02:27:37;;;;;;;;;;;;;;;12.93;69.73;97283.41;4875566;29;20559;-77
2022/06/10 02:30:08;;;;;;;3.88;1.63;;;;;;;12.95;69.71;97289.28;4874202;29;20390;-77
2022/06/10 02:32:37;;;;;;;2.97;1.52;;;;;;;12.97;69.31;97288.13;4872137;29;20106;-77
2022/06/10 02:35:07;;;;;;;4.35;1.55;;;;;;;12.92;69.07;97281.78;4872345;29;20058;-78
2022/06/10 02:37:45;;;;;;;2.22;1.90;;;;;;;12.88;69.39;97289.19;4874692;29;20061;-78
2022/06/10 02:40:23;;;;;;;4.10;1.40;;;;;;;12.89;69.80;97284.75;4874041;29;20061;-78
2022/06/10 02:43:00;;;;;;;2.53;1.73;;;;;;;12.89;69.63;97292.63;4874949;29;20049;-77
2022/06/10 02:45:33;;;;;;;1.45;1.10;;;;;;;12.87;69.96;97291.97;4873975;29;20056;-77
2022/06/10 02:48:08;;;;;;;2.78;1.25;;;;;;;12.86;69.40;97299.03;4874232;29;20053;-77
2022/06/10 02:50:38;;;;;;;2.70;1.42;;;;;;;12.90;70.31;97302.94;4871938;29;20136;-77
2022/06/10 02:53:08;;;;;;;6.78;2.17;;;;;;;12.87;69.58;97297.22;4873407;29;20427;-78
2022/06/10 02:55:38;;;;;;;3.55;1.88;;;;;;;12.85;69.37;97305.25;4870123;29;20054;-78
2022/06/10 03:01:13;;;;;;;4.30;1.55;;;;;;;12.83;69.39;97311.66;4871266;29;20081;-78
2022/06/10 03:03:52;;;;;;;2.92;1.80;;;;;;;12.81;69.33;97311.81;4872567;29;20053;-77
2022/06/10 03:06:30;;;;;;;5.43;2.08;;;;;;;12.80;69.01;97315.44;4873810;29;20117;-77
2022/06/10 03:09:09;;;;;;;3.22;1.85;;;;;;;12.82;69.62;97315.28;4873922;29;20522;-78
2022/06/10 03:11:41;;;;;;;2.80;1.65;;;;;;;12.84;69.55;97324.59;4873618;29;20083;-78
2022/06/10 03:14:14;;;;;;;5.45;2.17;;;;;;;12.85;69.52;97313.09;4870538;29;20075;-78
2022/06/10 03:16:56;;;;;;;2.95;1.80;;;;;;;12.82;69.17;97315.28;4871681;29;20455;-80
2022/06/10 03:19:35;;;;;;;2.95;1.95;;;;;;;12.77;68.96;97315.81;4872438;29;20128;-78
2022/06/10 03:22:13;;;;;;;3.60;1.92;;;;;;;12.76;70.46;97324.66;4876003;29;20038;-79
2022/06/10 03:24:55;;;;;;;2.05;1.60;;;;;;;12.72;69.25;97320.75;4875878;29;20057;-81
2022/06/10 03:27:29;;;;;;;3.33;1.42;;;;;;;12.68;69.94;97320.31;4874841;29;20053;-79
2022/06/10 03:30:04;;;;;;;2.05;1.50;;;;;;;12.68;69.35;97320.31;4872127;29;20054;-80
2022/06/10 03:32:36;;;;;;;3.70;1.65;;;;;;;12.68;69.30;97324.72;4872938;29;20057;-79
2022/06/10 03:35:10;;;;;;;;;;;;;;;12.69;68.82;97328.97;4874185;29;20092;-79
2022/06/10 03:37:40;;;;;;;4.45;1.90;;;;;;;12.60;68.92;97328.22;4873244;29;19924;-80
2022/06/10 03:40:16;;;;;;;2.15;1.42;;;;;;;12.55;69.23;97331.38;4872411;29;20087;-78
2022/06/10 03:42:47;;;;;;;5.88;1.83;;;;;;;12.51;69.18;97330.09;4874016;29;20065;-83
2022/06/10 03:45:17;;;;;;;5.28;1.80;;;;;;;12.51;69.55;97337.16;4875762;29;20053;-84
2022/06/10 03:47:46;;;;;;;3.22;1.65;;;;;;;12.56;70.49;97337.41;4875680;29;20053;-83
2022/06/10 03:50:17;;;;;;;1.90;1.60;;;;;;;12.57;69.63;97345.09;4875897;29;20049;-81
2022/06/10 03:52:46;;;;;;;6.50;1.77;;;;;;;12.56;69.32;97353.13;4875001;29;20057;-80
2022/06/10 03:55:19;;;;;;;3.58;1.67;;;;;;;12.52;69.31;97346.59;4873923;29;20061;-80
2022/06/10 03:57:48;;;;;;;4.53;1.95;;;;;;;12.48;69.42;97351.38;4872893;29;20082;-82
2022/06/10 04:00:19;;;;;;;2.85;1.50;;;;;;;12.43;69.33;97347.66;4875350;29;20150;-79
2022/06/10 04:02:47;;;;;;;3.88;1.40;;;;;;;12.40;69.65;97356.69;4874487;29;20136;-79
2022/06/10 04:05:15;;;;;;;2.75;1.23;;;;;;;12.42;69.38;97366.94;4874647;29;20104;-79
2022/06/10 04:07:43;;;;;;;6.82;1.70;;;;;;;12.46;69.89;97369.06;4874548;29;20135;-78
2022/06/10 04:10:14;;;;;;;2.35;1.27;;;;;;;12.52;70.71;97365.72;4874020;29;20519;-80
2022/06/10 04:12:43;;;;;;;2.97;1.80;;;;;;;12.60;71.21;97366.69;4874247;29;20086;-79
2022/06/10 04:15:14;;;;;;;2.33;1.20;;;;;;;12.65;70.94;97374.81;4873931;29;20069;-78
2022/06/10 04:17:43;;;;;;;2.25;1.80;;;;;;;12.67;70.25;97371.03;4873113;29;20053;-77
2022/06/10 04:20:16;;;;;;;2.00;1.55;;;;;;;12.74;70.66;97377.16;4872337;29;20049;-79
2022/06/10 04:22:43;;;;;;;;;;;;;;;12.75;70.12;97373.59;4872112;29;20113;-77
2022/06/10 04:25:11;;;;;;;3.05;1.60;;;;;;;12.78;71.76;97370.59;4872904;29;19996;-80
2022/06/10 04:27:39;;;;;;;4.10;2.15;;;;;;;12.81;70.25;97371.25;4872794;29;20077;-78
2022/06/10 04:30:16;;;;;;;2.22;1.70;;;;;;;12.84;72.45;97370.91;4871693;29;20045;-80
2022/06/10 04:32:43;;;;;;;3.10;1.95;;;;;;;12.85;70.48;97373.31;4872386;29;20049;-78
2022/06/10 04:35:11;;;;;;;3.95;2.30;;;;;;;12.85;70.05;97386.41;4871951;29;20080;-77
2022/06/10 04:37:39;;;;;;;5.28;2.55;;;;;;;12.87;70.36;97378.38;4872022;29;20519;-79
2022/06/10 04:40:07;;;;;;;4.90;2.33;;;;;;;12.92;71.50;97381.28;4871196;29;20049;-83
2022/06/10 04:42:35;;;;;;;4.80;3.05;;;;;;;12.98;70.91;97380.56;4870710;29;20084;-78
2022/06/10 04:45:03;;;;;;;3.63;2.25;;;;;;;12.99;69.95;97380.41;4871292;29;20132;-79
2022/06/10 04:47:32;;;;;;;5.82;2.72;;;;;;;12.94;69.51;97376.69;4871846;29;20579;-77
2022/06/10 04:50:00;;;;;;;3.50;2.38;;;;;;;12.90;69.49;97380.66;4871988;29;20069;-77
2022/06/10 04:52:28;;;;;;;6.57;2.50;;;;;;;12.85;69.50;97380.38;4873542;29;20129;-80
2022/06/10 04:54:55;;;;;;;5.35;2.20;;;;;;;12.82;69.62;97386.78;4873906;29;20080;-83
2022/06/10 04:57:23;;;;;;;8.10;3.70;;;;;;;12.80;69.37;97380.91;4863063;29;20088;-84
2022/06/10 04:59:51;;;;;;;4.63;2.95;;;;;;;12.77;69.53;97387.31;4868623;29;20045;-82
2022/06/10 05:02:19;;;;;;;4.93;3.30;;;;;;;12.77;69.71;97379.47;4867407;29;20131;-82
2022/06/10 05:04:48;;;;;;;5.25;3.22;;;;;;;12.77;70.02;97382.06;4888448;29;20044;-82
2022/06/10 05:07:16;;;;;;;5.78;2.75;;;;;;;12.76;69.73;97383.03;4877329;29;20125;-80
2022/06/10 05:09:44;;;;;;;7.15;2.90;;;;;;;12.76;70.09;97380.44;4882598;29;20522;-81
2022/06/10 05:12:11;;;;;;;5.40;2.47;;;;;;;12.83;69.95;97384.97;4874738;29;20189;-81
2022/06/10 05:14:39;;;;;;;3.50;2.33;;;;;;;12.93;71.88;97390.78;4891718;29;20049;-82
2022/06/10 05:17:07;;;;;;;5.72;2.40;;;;;;;13.05;73.25;97386.72;4893417;29;20056;-81
2022/06/10 05:19:35;;;;;;;3.38;2.42;;;;;;;13.15;72.43;97383.88;4882752;29;20053;-81
2022/06/10 05:22:05;;;;;;;5.78;2.88;;;;;;;13.22;71.60;97389.22;4893007;29;20092;-83
2022/06/10 05:24:32;;;;;;;4.90;2.72;;;;;;;13.29;72.14;97390.94;4893260;29;20056;-87
2022/06/10 05:27:00;;;;;;;4.65;2.10;;;;;;;13.38;72.62;97397.75;4885629;29;20114;-82
2022/06/10 05:29:28;;;;;;;6.88;2.90;;;;;;;13.45;72.50;97395.22;4874886;29;20082;-79
2022/06/10 05:31:55;;;;;;;8.90;3.15;;;;;;;13.48;70.67;97394.84;4879616;29;20053;-78
2022/06/10 05:37:10;;;;;;;7.13;2.75;;;;;;;13.54;69.81;97396.75;4880407;29;20081;-80
2022/06/10 05:39:38;;;;;;;4.57;2.47;;;;;;;13.60;69.92;97400.47;4877867;29;20121;-80
2022/06/10 05:42:07;;;;;;;5.40;2.47;;;;;;;13.66;69.91;97401.53;4874816;29;20145;-80
2022/06/10 05:44:37;;;;;;;8.20;3.13;;;;;;;13.70;68.66;97406.25;4870011;29;20116;-78
2022/06/10 05:47:07;;;;;;;6.65;2.60;;;;;;;13.72;68.42;97404.25;4866375;29;20130;-78
2022/06/10 05:49:36;;;;;;;5.18;3.20;;;;;;;13.76;68.57;97412.56;4866261;29;20045;-78
2022/06/10 05:52:06;;;;;;;4.55;3.17;;;;;;;13.82;68.22;97417.09;4865740;29;20061;-80
2022/06/10 05:54:35;;;;;;;5.60;2.85;;;;;;;13.88;67.88;97416.34;4866381;29;20050;-81
2022/06/10 05:57:03;;;;;;;6.88;3.22;;;;;;;13.92;67.88;97417.63;4869936;29;20120;-78
2022/06/10 05:59:33;;;;;;;4.25;2.72;;;;;;;13.98;67.46;97421.34;4873041;29;20082;-78
2022/06/10 06:02:01;;;;;;;4.80;2.70;;;;;;;14.04;67.52;97420.59;4870986;29;20088;-77
2022/06/10 06:04:29;;;;;;;5.80;2.75;;;;;;;14.10;67.08;97424.28;4872035;29;20060;-77
2022/06/10 06:06:57;;;;;;;8.32;3.15;;;;;;;14.15;67.25;97411.44;4871219;29;20050;-78
2022/06/10 06:09:26;;;;;;;6.88;2.40;;;;;;;14.22;67.26;97405.25;4871163;29;20153;-77
2022/06/10 06:11:56;;;;;;;3.13;1.90;;;;;;;14.29;67.89;97412.41;4871801;29;20054;-78
2022/06/10 06:14:26;;;;;;;3.42;2.60;;;;;;;14.39;70.18;97415.56;4871606;29;20551;-78
2022/06/10 06:16:56;;;;;;;7.40;2.28;;;;;;;14.48;70.18;97418.88;4871079;29;20061;-78
2022/06/10 06:19:25;;;;;;;3.45;2.20;;;;;;;14.54;69.80;97411.06;4871173;29;20431;-76
2022/06/10 06:21:52;;;;;;;2.67;1.70;;;;;;;14.63;70.00;97422.28;4870609;29;20069;-77
2022/06/10 06:24:20;;;;;;;4.00;2.42;;;;;;;14.69;69.36;97418.88;4871062;29;20515;-78
2022/06/10 06:26:48;;;;;;;2.47;1.95;;;;;;;14.75;69.67;97427.84;4871203;29;20143;-77
2022/06/10 06:29:17;;;;;;;4.90;2.08;;;;;;;14.81;69.99;97435.78;4870747;29;20071;-76
2022/06/10 06:31:45;;;;;;;3.90;1.80;;;;;;;14.88;68.66;97430.59;4869919;29;20113;-77
2022/06/10 06:34:13;;;;;;;5.07;1.95;;;;;;;14.94;67.96;97437.72;4870590;29;20050;-77
2022/06/10 06:36:44;;;;;;;4.00;1.80;;;;;;;15.01;69.00;97437.78;4871325;29;20113;-78
2022/06/10 06:39:12;;;;;;;5.43;2.08;;;;;;;15.07;68.29;97434.41;4870620;29;20083;-77
2022/06/10 06:41:44;;;;;;;6.93;2.05;;;;;;;15.13;66.68;97436.28;4870198;29;20067;-75
2022/06/10 06:44:13;;;;;;;6.00;1.70;;;;;;;15.18;66.42;97438.34;4874614;29;20057;-78
2022/06/10 06:46:43;;;;;;;3.63;2.00;;;;;;;15.24;67.01;97438.38;4873680;29;20054;-77
2022/06/10 06:49:16;;;;;;;7.85;2.45;;;;;;;15.32;65.97;97444.50;4870416;29;20057;-78
2022/06/10 06:51:44;;;;;;;5.30;1.90;;;;;;;15.38;65.94;97446.38;4870556;29;20488;-78
2022/06/10 06:54:12;;;;;;;4.57;1.50;;;;;;;15.44;65.88;97446.41;4870107;29;20089;-77
2022/06/10 06:56:39;;;;;;;5.10;2.78;;;;;;;15.50;63.10;97442.19;4871382;29;20097;-80
2022/06/10 06:59:08;;;;;;;3.75;2.15;;;;;;;15.57;64.96;97443.06;4871129;29;20140;-78
2022/06/10 07:01:36;;;;;;;4.40;2.30;;;;;;;15.64;63.66;97446.53;4870870;29;20102;-77
2022/06/10 07:04:06;;;;;;;4.30;2.40;;;;;;;15.73;66.45;97449.06;4871417;29;20070;-76
2022/06/10 07:06:35;;;;;;;3.30;2.05;;;;;;;15.80;65.29;97447.25;4873189;29;20057;-79
2022/06/10 07:09:04;;;;;;;2.70;2.10;;;;;;;15.87;64.60;97442.84;4872046;29;20096;-77
2022/06/10 07:11:32;;;;;;;4.70;2.00;;;;;;;15.94;64.50;97448.13;4872234;29;20053;-77
2022/06/10 07:14:00;;;;;;;3.88;1.80;;;;;;;16.00;63.35;97448.16;4873528;29;20485;-80
2022/06/10 07:16:28;;;;;;;4.82;2.13;;;;;;;16.08;63.51;97451.66;4872738;29;20064;-77
2022/06/10 07:18:56;;;;;;;3.72;2.03;;;;;;;16.15;63.84;97452.50;4872949;29;20046;-77
2022/06/10 07:21:27;;;;;;;6.15;2.25;;;;;;;16.23;62.99;97458.41;4873816;29;20077;-78
2022/06/10 07:23:55;;;;;;;6.90;2.20;;;;;;;16.31;63.89;97454.81;4873000;29;20054;-77
2022/06/10 07:26:23;;;;;;;4.28;2.05;;;;;;;16.40;63.13;97458.88;4873370;29;20285;-78
2022/06/10 07:28:51;;;;;;;2.25;1.63;;;;;;;16.48;63.15;97453.41;4872518;29;20054;-82
2022/06/10 07:31:20;;;;;;;4.57;1.90;;;;;;;16.58;63.73;97452.25;4870656;29;20057;-79
2022/06/10 07:33:47;;;;;;;5.70;2.20;;;;;;;16.65;62.01;97453.06;4871848;29;20069;-80
2022/06/10 07:36:15;;;;;;;4.22;2.53;;;;;;;16.69;61.52;97443.75;4872845;29;20056;-79
2022/06/10 07:38:44;;;;;;;5.32;1.90;;;;;;;16.77;60.69;97443.56;4871679;29;20113;-78
2022/06/10 07:43:57;;;;;;;5.63;1.85;;;;;;;16.93;59.78;97441.59;4872329;29;20073;-80
2022/06/10 07:46:25;;;;;;;5.55;1.75;;;;;;;17.00;59.74;97439.78;4871699;29;20057;-81
2022/06/10 07:48:52;;;;;;;4.38;1.95;;;;;;;17.06;60.44;97442.41;4871861;29;20073;-79
2022/06/10 07:51:20;;;;;;;4.60;1.90;;;;;;;17.14;59.57;97438.75;4872118;29;20057;-80
2022/06/10 07:53:50;;;;;;;4.57;1.73;;;;;;;17.22;58.98;97440.38;4873429;29;20252;-80
2022/06/10 07:56:20;;;;;;;6.13;2.00;;;;;;;17.29;58.97;97435.91;4874273;29;20095;-80
2022/06/10 07:58:49;;;;;;;5.45;2.00;;;;;;;17.40;58.38;97442.41;4873917;29;20504;-79
2022/06/10 08:01:17;;;;;;;5.22;2.30;;;;;;;17.48;58.67;97439.56;4872879;29;20056;-81
2022/06/10 08:03:48;;;;;;;4.68;1.90;;;;;;;17.55;57.19;97439.53;4873599;29;20565;-78
2022/06/10 09:16:35;;;;;;;4.38;1.50;;;;;;;19.93;50.46;97433.06;4933068;23;20098;-80
2022/06/10 09:19:09;;;;;;;12.93;2.25;;;;;;;20.04;50.21;97442.09;4860158;29;20113;-78
2022/06/10 09:21:44;;;;;;;2.83;1.42;;;;;;;20.15;50.05;97438.69;4859874;29;20081;-80
2022/06/10 09:24:19;;;;;;;3.28;1.25;;;;;;;20.25;48.84;97444.28;4860346;29;20488;-80
2022/06/10 09:26:53;;;;;;;4.72;1.23;;;;;;;20.32;47.86;97439.72;4845738;29;20070;-80
2022/06/10 11:39:33;;;;;;;2.00;1.45;;;;;;;22.49;42.73;97390.53;5967770;23;19922;31
2022/06/10 11:42:08;;;;;;;6.30;1.52;;;;;;;22.56;40.67;97381.34;4840801;29;20523;-79
2022/06/10 11:44:43;;;;;;;1.50;0.90;;;;;;;22.63;40.20;97392.66;4843275;29;20270;-78
2022/06/10 11:47:19;;;;;;;2.72;1.10;;;;;;;22.70;41.98;97387.19;4842977;29;20155;-79
2022/06/10 11:49:52;;;;;;;3.20;1.25;;;;;;;22.76;40.35;97385.41;4842773;29;20110;-79
2022/06/10 16:30:26;;;;;;;3.00;1.00;;;;;;;22.96;40.72;97276.66;5064781;23;20424;-79
2022/06/10 16:32:54;;;;;;;3.00;1.08;;;;;;;22.95;39.89;97269.72;4881698;29;20464;-78
2022/06/10 16:35:24;;;;;;;1.10;0.95;;;;;;;22.95;39.95;97267.06;4875673;29;20080;-79
2022/06/10 16:37:53;;;;;;;2.70;1.10;;;;;;;22.94;39.53;97268.13;4859844;29;20083;-78
2022/06/10 16:40:21;;;;;;;1.75;1.10;;;;;;;22.92;39.01;97264.91;4864379;29;20053;-80
2022/06/10 16:42:51;;;;;;;4.05;1.50;;;;;;;22.88;39.15;97263.78;4882923;23;20148;-79
2022/06/10 16:45:22;;;;;;;3.47;1.85;;;;;;;22.87;39.18;97267.50;4862737;29;20057;-80
2022/06/10 16:47:51;;;;;;;4.10;1.25;;;;;;;22.88;39.92;97268.28;4862338;29;20095;-80
2022/06/10 16:50:22;;;;;;;2.55;1.02;;;;;;;22.88;39.96;97265.63;4862429;29;20477;-78
2022/06/10 16:52:49;;;;;;;1.95;1.20;;;;;;;22.88;39.23;97265.63;4860634;29;20060;-80
2022/06/10 16:55:19;;;;;;;1.98;0.90;;;;;;;22.87;40.82;97267.50;4865251;29;20060;-79
2022/06/10 16:57:50;;;;;;;2.20;1.13;;;;;;;22.88;40.59;97265.63;4877088;29;20061;-80
2022/06/10 17:00:21;;;;;;;3.47;1.07;;;;;;;22.89;42.10;97264.56;4866547;29;20573;-79
2022/06/10 17:02:53;;;;;;;4.80;1.05;;;;;;;22.87;39.51;97267.50;4860441;29;20222;-80
2022/06/10 17:05:23;;;;;;;6.53;1.13;;;;;;;22.86;39.32;97263.22;4861468;29;20092;-81
2022/06/10 17:07:51;;;;;;;3.90;1.42;;;;;;;22.85;39.43;97264.28;4862023;29;20512;-79
2022/06/10 17:10:19;;;;;;;2.53;1.15;;;;;;;22.84;39.94;97262.66;4878349;29;20063;-79
2022/06/10 17:12:55;;;;;;;1.20;0.98;;;;;;;22.84;39.15;97258.13;4878190;29;20495;-79
2022/06/10 17:15:25;;;;;;;3.35;1.00;;;;;;;22.84;37.97;97260.00;4854071;29;20457;-79
2022/06/10 17:18:01;;;;;;;4.55;1.73;;;;;;;22.83;39.02;97259.19;4862100;29;20088;-81
2022/06/10 17:20:33;;;;;;;1.95;1.42;;;;;;;22.84;38.43;97257.34;4878531;29;20057;-82
2022/06/10 17:23:03;;;;;;;1.75;1.08;;;;;;;22.84;40.65;97257.34;4862529;29;20057;-82
2022/06/10 17:25:35;;;;;;;1.83;1.08;;;;;;;22.84;39.83;97257.34;4862789;29;20061;-82
2022/06/10 17:28:06;;;;;;;3.30;1.08;;;;;;;22.84;39.43;97257.34;4863017;29;20137;-82
2022/06/10 17:30:38;;;;;;;1.85;1.10;;;;;;;22.84;41.76;97266.09;4844795;29;20057;-79
2022/06/10 17:33:18;;;;;;;2.83;1.58;;;;;;;22.85;41.10;97264.28;4930216;23;20053;-83
2022/06/10 17:35:56;;;;;;;1.73;1.10;;;;;;;22.82;40.70;97259.44;4864857;29;20049;-83
2022/06/10 17:38:33;;;;;;;3.25;1.40;;;;;;;22.82;39.20;97257.56;4869449;29;20046;-83
2022/06/10 17:41:28;;;;;;;2.22;1.20;;;;;;;22.80;39.27;97257.00;4877739;29;20081;-82
2022/06/10 17:46:38;;;;;;;2.25;0.88;;;;;;;22.79;38.92;97257.28;4920910;23;20415;-83
2022/06/10 17:49:15;;;;;;;1.38;1.00;;;;;;;22.79;41.58;97260.72;4870267;29;20061;-79
2022/06/10 17:51:47;;;;;;;2.90;0.90;;;;;;;22.79;41.56;97254.59;4873502;29;20057;-81
2022/06/10 17:54:16;;;;;;;5.07;1.50;;;;;;;22.79;39.81;97254.59;4875811;29;20046;-83
2022/06/10 17:56:44;;;;;;;4.25;0.85;;;;;;;22.77;39.41;97262.81;4883705;29;20121;-83
2022/06/10 17:59:19;;;;;;;1.80;0.90;;;;;;;22.76;39.77;97261.22;4897179;29;20053;-83
2022/06/10 18:01:51;;;;;;;2.20;1.10;;;;;;;22.75;39.56;97266.78;4902752;29;20065;-84
2022/06/10 18:04:23;;;;;;;1.48;0.93;;;;;;;22.71;39.34;97263.00;4884031;29;20054;-82
2022/06/10 18:06:52;;;;;;;1.75;1.23;;;;;;;22.68;38.95;97252.84;4880813;29;20065;-82
2022/06/10 18:09:20;;;;;;;1.65;1.00;;;;;;;22.66;38.52;97270.91;4877475;29;20057;-82
2022/06/10 18:11:51;;;;;;;3.80;0.93;;;;;;;22.63;38.64;97262.34;4882555;29;20072;-83
2022/06/10 18:17:18;;;;;;;2.78;0.85;;;;;;;22.59;39.21;97261.22;4867168;29;20053;-81
2022/06/10 18:20:16;;;;;;;1.98;0.93;;;;;;;22.58;41.23;97264.91;4867718;29;20083;-82
2022/06/10 18:22:44;;;;;;;1.80;0.93;;;;;;;22.57;41.04;97268.63;4883697;29;20053;-82
2022/06/10 18:25:15;;;;;;;2.10;1.10;;;;;;;22.55;43.07;97264.63;4888161;29;20069;-82
2022/06/10 18:27:44;;;;;;;1.43;0.83;;;;;;;22.50;42.29;97259.19;4875137;29;20077;-81
2022/06/10 18:30:14;;;;;;;2.65;1.20;;;;;;;22.46;42.14;97260.75;4869787;29;20078;-81
2022/06/10 18:32:43;;;;;;;2.35;0.90;;;;;;;22.41;42.08;97256.13;4880900;29;20041;-83
2022/06/10 18:35:28;;;;;;;3.33;1.65;;;;;;;22.38;41.46;97259.28;4880942;29;20049;-83
2022/06/10 18:38:18;;;;;;;1.08;0.75;;;;;;;22.35;43.67;97260.59;4880153;29;20341;-83
2022/06/10 18:40:48;;;;;;;5.65;1.40;;;;;;;22.32;44.06;97262.91;4877776;29;20096;-82
2022/06/10 18:43:32;;;;;;;7.07;1.58;;;;;;;22.24;44.22;97257.97;4883932;29;20056;-81
2022/06/10 18:46:17;;;;;;;4.50;1.50;;;;;;;22.13;44.77;97262.31;4876659;29;20049;-81
2022/06/10 18:48:49;;;;;;;2.42;1.10;;;;;;;22.00;45.15;97272.19;4864235;29;20064;-81
2022/06/10 18:51:22;;;;;;;3.95;1.00;;;;;;;21.88;45.71;97262.66;4863756;29;20508;-80
2022/06/10 18:53:51;;;;;;;3.60;1.35;;;;;;;21.76;46.26;97271.47;4882338;29;20049;-80
2022/06/10 18:56:21;;;;;;;4.45;1.67;;;;;;;21.64;46.53;97275.19;4883044;29;20076;-80
2022/06/10 18:58:49;;;;;;;3.15;1.55;;;;;;;21.54;46.95;97281.13;4883189;29;20136;-81
2022/06/10 19:01:24;;;;;;;2.63;1.70;;;;;;;21.45;47.33;97279.88;4866778;29;20054;-82
2022/06/10 19:03:54;;;;;;;3.38;1.38;;;;;;;21.31;47.74;97280.09;4850350;29;20050;-82
2022/06/10 19:06:24;;;;;;;4.45;1.10;;;;;;;21.20;47.70;97275.63;4879315;29;20049;-81
2022/06/10 19:08:52;;;;;;;4.00;1.50;;;;;;;21.11;47.99;97284.97;4890694;29;20048;-82
2022/06/10 19:11:24;;;;;;;3.95;1.38;;;;;;;21.01;48.33;97282.09;4884625;29;20084;-81
2022/06/10 19:13:53;;;;;;;7.60;1.60;;;;;;;20.90;48.22;97279.22;4886862;29;20041;-82
2022/06/10 19:16:26;;;;;;;2.50;1.20;;;;;;;20.80;48.55;97286.94;4892211;29;20104;-82
2022/06/10 19:18:56;;;;;;;2.92;1.40;;;;;;;20.72;48.51;97284.63;4859066;29;20057;-81
2022/06/10 19:21:30;;;;;;;3.33;1.90;;;;;;;20.62;48.79;97287.03;4877828;29;20057;-83
2022/06/10 19:23:59;;;;;;;4.90;1.80;;;;;;;20.52;48.82;97291.03;4857342;29;20084;-83
2022/06/10 19:26:27;;;;;;;1.75;1.17;;;;;;;20.40;48.69;97292.88;4856256;29;20092;-83
2022/06/10 19:28:55;;;;;;;6.05;1.48;;;;;;;20.28;48.74;97292.81;4849869;29;20058;-82
2022/06/10 19:31:29;;;;;;;1.90;1.23;;;;;;;20.17;48.92;97294.41;4847568;29;20062;-80
2022/06/10 19:34:00;;;;;;;2.45;1.25;;;;;;;20.09;49.16;97300.00;4846424;29;20052;-81
2022/06/10 19:36:36;;;;;;;3.38;1.52;;;;;;;20.00;48.94;97301.38;4884109;29;20037;-83
2022/06/10 19:39:09;;;;;;;5.38;2.42;;;;;;;19.90;49.46;97304.56;4883101;29;20162;-82
2022/06/10 19:41:37;;;;;;;;;;;;;;;19.86;49.03;97307.88;4889829;29;20105;-83
2022/06/10 19:46:51;;;;;;;3.63;1.23;;;;;;;19.60;49.43;97309.78;4895942;29;20045;-82
2022/06/10 19:49:22;;;;;;;4.30;1.50;;;;;;;19.52;49.64;97312.72;4903150;29;20053;-81
2022/06/10 19:51:51;;;;;;;2.92;1.52;;;;;;;19.43;50.07;97317.50;4893619;29;20064;-82
2022/06/10 19:54:20;;;;;;;4.45;2.00;;;;;;;19.38;50.34;97316.56;4882971;29;20230;-80
2022/06/10 19:56:48;;;;;;;2.05;1.48;;;;;;;19.30;50.71;97315.81;4881979;29;20049;-80
2022/06/10 19:59:17;;;;;;;1.63;1.52;;;;;;;19.27;50.58;97323.41;4885868;29;20049;-82
2022/06/10 20:01:48;;;;;;;3.75;1.50;;;;;;;19.20;50.79;97320.00;4883469;29;20059;-81
2022/06/10 20:04:21;;;;;;;3.78;1.60;;;;;;;19.13;50.84;97322.69;4876213;29;20073;-79
2022/06/10 20:07:06;;;;;;;4.35;1.58;;;;;;;19.06;51.17;97329.91;4867098;29;20034;-82
2022/06/10 20:09:39;;;;;;;1.83;1.52;;;;;;;18.99;51.16;97323.88;4879965;29;20060;-82
2022/06/10 20:12:08;;;;;;;2.08;1.60;;;;;;;18.88;51.49;97326.19;4869659;29;20053;-81
2022/06/10 20:14:36;;;;;;;2.00;1.27;;;;;;;18.79;51.26;97322.22;4871054;29;20053;-83
2022/06/10 20:17:14;;;;;;;6.57;2.05;;;;;;;18.68;51.84;97328.16;4875901;29;20061;-82
2022/06/10 20:19:43;;;;;;;3.40;1.88;;;;;;;18.59;52.04;97321.53;4872033;29;20053;-82
2022/06/10 20:22:14;;;;;;;3.78;2.00;;;;;;;18.49;52.57;97328.09;4868752;29;20101;-82
2022/06/10 20:24:42;;;;;;;2.70;1.80;;;;;;;18.39;52.73;97322.47;4867770;29;20146;-81
2022/06/10 20:27:10;;;;;;;3.80;2.53;;;;;;;18.32;52.94;97326.97;4869148;29;20629;-82
2022/06/10 20:29:38;;;;;;;6.53;2.80;;;;;;;18.24;53.20;97325.41;4882808;29;20049;-81
2022/06/10 20:32:23;;;;;;;8.63;2.20;;;;;;;18.18;53.57;97328.09;4883455;29;20117;-82
2022/06/10 20:34:54;;;;;;;2.20;1.80;;;;;;;18.11;53.67;97323.66;4869470;29;20057;-82
2022/06/10 20:37:24;;;;;;;3.03;1.60;;;;;;;18.05;53.95;97327.13;4867559;29;20086;-81
2022/06/10 20:39:51;;;;;;;4.63;1.88;;;;;;;18.00;53.93;97321.69;4866284;29;20096;-82
2022/06/10 20:42:22;;;;;;;4.32;1.75;;;;;;;17.95;53.95;97328.63;4865529;29;20088;-82
2022/06/10 20:44:51;;;;;;;2.03;1.83;;;;;;;17.88;54.04;97324.16;4866480;29;20092;-82
2022/06/10 20:47:23;;;;;;;2.28;1.90;;;;;;;17.84;54.14;97322.16;4864634;29;20081;-82
2022/06/10 20:49:58;;;;;;;1.92;1.73;;;;;;;17.77;54.48;97327.44;4864255;29;20084;-81
2022/06/10 20:52:30;;;;;;;2.70;1.80;;;;;;;17.71;54.64;97326.47;4863558;29;20140;-82
2022/06/10 20:54:58;;;;;;;2.45;1.58;;;;;;;17.68;54.51;97326.88;4862862;29;20057;-81
2022/06/10 20:57:26;;;;;;;4.80;1.60;;;;;;;17.62;54.64;97322.44;4863597;29;20306;-81
2022/06/10 20:59:53;;;;;;;5.47;1.70;;;;;;;17.59;54.95;97330.75;4862579;29;20068;-81
2022/06/10 21:02:23;;;;;;;2.78;1.45;;;;;;;17.52;55.22;97329.97;4863138;29;20091;-81
2022/06/10 21:07:43;;;;;;;2.63;2.03;;;;;;;17.43;55.36;97325.97;4862425;29;20500;-81
2022/06/10 21:10:22;;;;;;;2.30;1.77;;;;;;;17.40;55.43;97326.34;4862116;29;20061;-81
2022/06/10 21:12:52;;;;;;;5.00;2.58;;;;;;;17.34;55.33;97332.44;4862804;29;20109;-81
2022/06/10 21:15:24;;;;;;;2.40;1.70;;;;;;;17.30;55.52;97318.88;4862581;29;20057;-81
2022/06/10 21:17:56;;;;;;;2.65;1.63;;;;;;;17.24;55.98;97323.16;4862459;29;20053;-82
2022/06/10 21:20:27;;;;;;;2.58;2.00;;;;;;;17.19;56.02;97317.69;4861964;29;20053;-81
2022/06/10 21:22:59;;;;;;;4.65;2.22;;;;;;;17.14;56.18;97317.47;4861287;29;20060;-81
2022/06/10 21:25:30;;;;;;;3.97;2.65;;;;;;;17.08;56.28;97323.59;4861225;29;20057;-81
2022/06/10 21:27:59;;;;;;;2.85;2.10;;;;;;;17.04;56.05;97317.91;4874746;29;20527;-81
2022/06/10 21:30:29;;;;;;;2.53;1.80;;;;;;;17.00;56.39;97321.97;4862657;29;20524;-81
2022/06/10 21:33:00;;;;;;;2.58;2.00;;;;;;;16.95;56.44;97323.63;4861382;29;20063;-81
2022/06/10 21:35:30;;;;;;;4.22;2.83;;;;;;;16.90;56.77;97321.56;4861272;29;20060;-81
2022/06/10 21:38:02;;;;;;;5.60;1.98;;;;;;;16.85;56.86;97321.38;4861259;29;20132;-82
2022/06/10 21:40:32;;;;;;;7.30;2.13;;;;;;;16.79;56.81;97325.63;4860422;29;20132;-81
2022/06/10 21:45:45;;;;;;;3.03;2.08;;;;;;;16.71;57.17;97328.44;4861035;29;20144;-81
2022/06/10 21:48:19;;;;;;;3.53;1.75;;;;;;;16.67;57.24;97328.03;4861196;29;20072;-81
2022/06/10 21:50:49;;;;;;;2.60;1.80;;;;;;;16.63;57.31;97328.66;4860800;29;20085;-81
2022/06/10 21:53:24;;;;;;;2.65;2.40;;;;;;;16.56;57.75;97322.56;4860651;29;20149;-81
2022/06/10 21:55:52;;;;;;;3.00;1.98;;;;;;;16.51;57.79;97322.34;4860221;29;20073;-81
2022/06/10 21:58:23;;;;;;;3.53;1.95;;;;;;;16.44;57.99;97331.06;4860051;29;20057;-82
2022/06/10 22:00:54;;;;;;;2.55;2.10;;;;;;;16.44;58.34;97320.53;4843298;29;20431;-81
2022/06/10 22:03:44;;;;;;;1.98;1.80;;;;;;;16.44;57.98;97324.97;4860204;29;20060;-81
2022/06/10 22:06:15;;;;;;;3.58;2.00;;;;;;;16.40;58.24;97329.06;4860006;29;20205;-81